Time;durP1;ratioP1;P1;durP2;ratioP2;P2;SDS_P1;SDS_P2;PMS_P1;PMS_P2;Temp;Humidity;BMP_temperature;BMP_pressure;BME280_temperature;BME280_humidity;BME280_pressure;Samples;Min_cycle;Max_cycle;Signal;HPM_P1;HPM_P2
2022/03/30 00:00:56;;;;;;;39.90;19.05;;;10.90;79.70;;;8.46;74.26;99665.25;4971185;28;20070;-90
2022/03/30 00:03:23;;;;;;;38.90;20.38;;;10.80;79.70;;;8.43;74.61;99674.59;4972192;28;20050;-88
2022/03/30 00:05:50;;;;;;;45.83;20.05;;;10.90;80.10;;;8.41;74.50;99671.22;4986198;28;20631;-88
2022/03/30 00:08:18;;;;;;;40.25;19.25;;;10.80;79.90;;;8.42;74.89;99670.22;4971649;28;20046;-88
2022/03/30 00:10:46;;;;;;;41.53;21.02;;;10.80;80.00;;;8.42;75.26;99659.38;4970888;28;20071;-88
2022/03/30 00:13:15;;;;;;;43.33;20.98;;;10.90;80.20;;;8.41;74.46;99646.81;4971739;28;20050;-91
2022/03/30 00:15:42;;;;;;;41.13;20.15;;;10.80;80.00;;;8.43;74.50;99658.34;4971984;28;20132;-89
2022/03/30 00:18:09;;;;;;;43.97;20.65;;;10.90;80.10;;;8.44;74.73;99653.78;4970953;28;20051;-89
2022/03/30 00:20:37;;;;;;;38.40;20.35;;;10.80;79.80;;;8.46;74.21;99659.84;4968637;28;20043;-88
2022/03/30 00:23:05;;;;;;;42.72;21.00;;;10.90;79.90;;;8.50;74.35;99653.00;4970960;28;20061;-89
2022/03/30 00:25:32;;;;;;;39.95;20.80;;;10.80;80.00;;;8.41;74.57;99652.22;4970697;28;20039;-88
2022/03/30 00:28:02;;;;;;;41.45;20.30;;;10.80;80.00;;;8.38;74.84;99647.22;4985383;28;20042;-89
2022/03/30 00:30:30;;;;;;;44.88;20.48;;;10.80;80.00;;;8.41;74.09;99657.66;4969529;28;20412;-89
2022/03/30 00:32:57;;;;;;;39.13;20.13;;;10.80;79.90;;;8.33;74.94;99650.47;4973324;28;20062;-89
2022/03/30 00:35:26;;;;;;;40.28;19.88;;;10.70;80.10;;;8.36;74.54;99652.00;4974010;28;20061;-88
2022/03/30 00:37:54;;;;;;;36.60;20.25;;;10.70;80.30;;;8.35;75.26;99648.41;4974116;28;20531;-89
2022/03/30 00:40:21;;;;;;;39.33;20.48;;;10.70;80.30;;;8.32;74.90;99647.97;4988323;28;20042;-88
2022/03/30 00:42:49;;;;;;;43.35;20.45;;;10.70;80.10;;;8.32;74.94;99658.81;4974184;28;20101;-88
2022/03/30 00:45:20;;;;;;;36.40;20.15;;;10.70;80.30;;;8.22;74.87;99654.56;4974142;28;20126;-89
2022/03/30 00:47:48;;;;;;;35.72;19.38;;;10.70;80.40;;;8.22;75.45;99653.69;4974111;28;20068;-89
2022/03/30 00:50:20;;;;;;;43.00;20.88;;;10.70;80.50;;;8.26;75.28;99649.56;4973418;28;20133;-88
2022/03/30 00:52:51;;;;;;;37.58;19.25;;;10.70;80.40;;;8.19;75.53;99654.91;4974039;28;20507;-89
2022/03/30 00:55:19;;;;;;;39.33;19.52;;;10.70;80.50;;;8.19;75.11;99641.38;4974148;28;20497;-89
2022/03/30 00:57:48;;;;;;;39.47;20.13;;;10.70;80.40;;;8.19;75.68;99652.22;4972498;28;20043;-88
2022/03/30 01:00:17;;;;;;;39.47;19.65;;;10.70;80.50;;;8.15;76.34;99653.63;4973234;28;20047;-89
2022/03/30 01:02:48;;;;;;;42.22;20.75;;;10.70;80.90;;;8.13;75.83;99649.41;4972395;28;20130;-88
2022/03/30 01:05:16;;;;;;;41.17;19.70;;;10.60;80.70;;;8.03;76.88;99649.72;4973183;28;20093;-88
2022/03/30 01:07:44;;;;;;;46.17;21.90;;;10.60;81.00;;;8.04;76.05;99654.13;4973232;28;20050;-88
2022/03/30 01:10:14;;;;;;;38.88;20.08;;;10.60;81.10;;;8.04;76.72;99643.28;4972838;28;20555;-87
2022/03/30 01:12:41;;;;;;;41.47;20.05;;;10.60;81.30;;;7.99;75.98;99643.00;4988469;28;20548;-89
2022/03/30 01:15:11;;;;;;;37.97;19.50;;;10.50;80.80;;;8.00;76.75;99636.56;4970433;28;20142;-88
2022/03/30 01:17:41;;;;;;;42.72;19.42;;;10.60;81.00;;;7.92;76.73;99637.50;4972127;28;20054;-88
2022/03/30 01:20:11;;;;;;;42.45;20.42;;;10.50;81.20;;;7.90;76.78;99633.28;4972860;28;20047;-88
2022/03/30 01:22:40;;;;;;;37.30;19.05;;;10.40;81.10;;;7.86;77.22;99630.09;4973487;28;20043;-88
2022/03/30 01:25:09;;;;;;;38.22;20.33;;;10.40;81.20;;;7.85;77.49;99624.91;4973084;28;20074;-88
2022/03/30 01:27:36;;;;;;;46.25;21.00;;;10.40;81.30;;;7.80;77.23;99620.88;4973430;28;20051;-88
2022/03/30 01:32:59;;;;;;;39.67;20.67;;;10.30;81.70;;;7.69;77.71;99626.78;4973188;28;20118;-88
2022/03/30 01:35:26;;;;;;;44.03;20.60;;;10.30;81.60;;;7.68;77.41;99622.38;4987897;28;20053;-90
2022/03/30 01:37:56;;;;;;;41.00;19.98;;;10.30;81.70;;;7.65;77.97;99614.63;4972727;28;20039;-88
2022/03/30 01:40:24;;;;;;;44.88;21.00;;;10.20;81.80;;;7.58;78.44;99608.31;4972350;28;20133;-88
2022/03/30 01:42:51;;;;;;;38.15;19.02;;;10.20;82.10;;;7.63;78.81;99611.28;4971971;28;20042;-87
2022/03/30 01:45:19;;;;;;;40.17;19.13;;;10.20;82.20;;;7.54;78.94;99609.69;4972953;28;20125;-87
2022/03/30 01:47:51;;;;;;;41.60;20.45;;;10.10;82.50;;;7.56;78.79;99615.78;4972936;28;20902;-88
2022/03/30 01:50:18;;;;;;;46.03;20.00;;;10.10;82.40;;;7.55;78.64;99614.91;4971927;28;20077;-89
2022/03/30 01:52:46;;;;;;;41.35;20.08;;;10.10;82.50;;;7.53;78.42;99616.16;4972987;28;20038;-87
2022/03/30 01:55:16;;;;;;;45.28;20.35;;;10.10;82.40;;;7.49;78.75;99604.00;4972526;28;20129;-88
2022/03/30 01:57:44;;;;;;;43.35;22.08;;;10.10;82.40;;;7.39;79.13;99605.13;4972799;28;20117;-88
2022/03/30 02:00:14;;;;;;;45.05;20.75;;;10.10;82.90;;;7.38;79.48;99595.31;4971992;28;20039;-87
2022/03/30 02:02:42;;;;;;;38.80;20.33;;;10.10;82.60;;;7.42;79.41;99593.06;4987128;28;20713;-87
2022/03/30 02:05:11;;;;;;;42.35;20.20;;;10.10;82.60;;;7.35;80.12;99594.84;4972400;28;20566;-88
2022/03/30 02:07:40;;;;;;;39.10;20.45;;;10.00;83.00;;;7.33;80.18;99586.06;4972499;28;20081;-88
2022/03/30 02:10:10;;;;;;;44.55;21.30;;;10.00;83.00;;;7.37;79.81;99580.13;4971727;28;20129;-88
2022/03/30 02:12:39;;;;;;;38.03;19.50;;;10.00;83.20;;;7.38;79.92;99576.38;4972250;28;20070;-87
2022/03/30 02:15:09;;;;;;;50.17;21.23;;;10.00;83.00;;;7.35;79.76;99576.75;4972401;28;20632;-88
2022/03/30 02:17:36;;;;;;;47.60;21.30;;;10.00;83.20;;;7.23;80.77;99578.22;4971365;28;20793;-88
2022/03/30 02:20:05;;;;;;;46.38;21.60;;;10.10;83.70;;;7.30;80.43;99583.75;4966969;28;20053;-91
2022/03/30 02:22:32;;;;;;;44.67;22.05;;;9.90;83.40;;;7.22;80.48;99579.28;4953128;29;20125;-87
2022/03/30 02:25:00;;;;;;;38.83;20.88;;;9.90;83.70;;;7.13;81.52;99573.09;4952991;29;20039;-88
2022/03/30 02:27:27;;;;;;;49.13;22.17;;;9.90;83.80;;;7.14;81.64;99569.38;4964850;28;20101;-87
2022/03/30 02:29:56;;;;;;;43.22;20.15;;;9.90;83.80;;;7.23;80.86;99573.69;4971041;28;20484;-88
2022/03/30 02:32:23;;;;;;;51.70;22.17;;;9.90;83.60;;;7.17;80.79;99563.59;4972249;28;20047;-88
2022/03/30 02:34:51;;;;;;;43.67;20.95;;;9.90;83.80;;;7.19;81.30;99555.28;4972041;28;20074;-90
2022/03/30 02:37:19;;;;;;;43.97;22.00;;;9.80;83.80;;;7.10;81.81;99561.81;4971981;28;20411;-87
2022/03/30 02:39:47;;;;;;;40.30;20.88;;;9.80;83.90;;;6.86;83.04;99563.75;4971345;28;20086;-88
2022/03/30 02:42:15;;;;;;;42.22;21.10;;;9.80;84.10;;;6.83;83.49;99556.84;4971632;28;20529;-90
2022/03/30 02:44:43;;;;;;;41.17;20.77;;;9.80;84.30;;;6.95;82.57;99559.94;4986466;28;20046;-89
2022/03/30 02:47:12;;;;;;;46.55;21.13;;;9.80;84.30;;;7.04;82.39;99547.16;4971808;28;20047;-89
2022/03/30 02:49:39;;;;;;;47.08;21.77;;;9.70;84.20;;;7.03;82.04;99549.03;4986669;28;20050;-88
2022/03/30 02:52:08;;;;;;;42.45;21.13;;;9.70;84.20;;;7.05;81.95;99532.63;4971508;28;20054;-89
2022/03/30 02:54:35;;;;;;;42.97;20.52;;;9.70;84.10;;;7.05;82.21;99535.31;4971193;28;20051;-90
2022/03/30 02:57:03;;;;;;;47.15;22.73;;;9.70;84.10;;;6.96;82.58;99533.72;4971616;28;20101;-90
2022/03/30 02:59:30;;;;;;;49.17;21.52;;;9.70;84.30;;;6.90;82.18;99529.06;4970294;28;20057;-89
2022/03/30 03:01:59;;;;;;;46.28;21.80;;;9.70;84.20;;;6.92;82.68;99525.13;4970855;28;20876;-90
2022/03/30 03:04:28;;;;;;;47.50;21.48;;;9.70;84.30;;;6.84;82.23;99525.22;4971110;28;20049;-89
2022/03/30 03:06:55;;;;;;;51.83;20.98;;;9.60;84.40;;;6.77;82.71;99519.72;4971111;28;20541;-89
2022/03/30 03:09:22;;;;;;;48.45;21.88;;;9.60;84.50;;;6.59;84.18;99525.47;4970003;28;20070;-89
2022/03/30 03:11:50;;;;;;;42.50;21.23;;;9.50;84.70;;;6.50;84.70;99534.69;4970567;28;20046;-89
2022/03/30 03:14:17;;;;;;;42.30;21.27;;;9.50;85.10;;;6.32;85.33;99536.84;4971248;28;20062;-89
2022/03/30 03:16:44;;;;;;;47.28;21.92;;;9.40;85.10;;;6.20;85.87;99534.56;4971225;28;20606;-89
2022/03/30 03:19:11;;;;;;;44.53;20.85;;;9.30;85.50;;;6.32;85.75;99536.84;4969616;28;20070;-89
2022/03/30 03:21:40;;;;;;;49.10;22.17;;;9.30;85.60;;;6.38;84.85;99531.56;4985290;28;20174;-89
2022/03/30 03:24:08;;;;;;;49.90;21.73;;;9.30;85.70;;;6.39;84.49;99521.59;4985982;28;20141;-89
2022/03/30 03:26:35;;;;;;;38.38;20.10;;;9.20;85.70;;;6.44;84.75;99522.72;4970957;28;20053;-90
2022/03/30 03:29:03;;;;;;;45.63;21.55;;;9.20;85.60;;;6.37;85.28;99520.94;4971321;28;20145;-90
2022/03/30 03:31:30;;;;;;;44.67;21.05;;;9.20;85.70;;;6.29;85.75;99526.41;4970312;28;20049;-90
2022/03/30 03:33:57;;;;;;;47.42;21.65;;;9.20;85.80;;;6.13;85.88;99530.06;4971116;28;20489;-89
2022/03/30 03:36:25;;;;;;;43.42;20.00;;;9.10;86.00;;;6.00;86.21;99530.69;4970451;28;20046;-90
2022/03/30 03:38:54;;;;;;;45.25;20.70;;;9.10;86.10;;;5.99;86.62;99521.72;4969590;28;20510;-89
2022/03/30 03:41:21;;;;;;;48.25;20.30;;;9.00;86.00;;;6.02;86.53;99521.38;4969871;28;20066;-90
2022/03/30 03:43:49;;;;;;;43.67;20.15;;;9.00;86.00;;;6.07;86.42;99524.38;4970804;28;20047;-89
2022/03/30 03:46:16;;;;;;;44.97;19.83;;;8.90;86.30;;;5.99;87.33;99526.28;4970740;28;20046;-89
2022/03/30 03:48:43;;;;;;;44.47;18.85;;;8.90;86.40;;;5.97;86.70;99523.75;4970470;28;20054;-89
2022/03/30 03:51:12;;;;;;;44.38;20.27;;;8.90;86.50;;;5.86;86.88;99522.31;4969906;28;20298;-89
2022/03/30 03:53:40;;;;;;;41.67;19.77;;;8.90;86.50;;;5.93;86.65;99524.28;4970760;28;20579;-89
2022/03/30 03:56:08;;;;;;;48.22;19.50;;;8.80;86.40;;;5.96;86.82;99515.84;4970389;28;20056;-89
2022/03/30 03:58:36;;;;;;;45.75;20.30;;;8.80;86.50;;;5.94;86.67;99512.44;4969330;28;20072;-88
2022/03/30 04:01:03;;;;;;;42.35;20.98;;;8.80;86.40;;;6.00;86.62;99511.78;4970007;28;20515;-88
2022/03/30 04:03:30;;;;;;;46.08;20.35;;;8.80;86.50;;;5.93;86.69;99511.63;4970629;28;20503;-89
2022/03/30 04:05:57;;;;;;;42.40;20.58;;;8.80;86.60;;;5.94;86.67;99517.84;4970160;28;20071;-88
2022/03/30 04:08:25;;;;;;;43.45;20.05;;;8.80;86.70;;;5.88;86.80;99504.06;4970221;28;20411;-89
2022/03/30 04:10:52;;;;;;;41.90;18.38;;;8.80;86.80;;;5.76;87.79;99510.88;4970076;28;20452;-89
2022/03/30 04:13:21;;;;;;;48.30;20.60;;;8.80;86.80;;;5.76;87.79;99513.56;4970606;28;20070;-89
2022/03/30 04:15:48;;;;;;;44.90;19.25;;;8.70;86.80;;;5.74;88.16;99512.09;4970474;28;20444;-89
2022/03/30 04:18:15;;;;;;;46.42;20.33;;;8.70;86.80;;;5.57;88.06;99511.34;4970262;28;20399;-89
2022/03/30 04:20:46;;;;;;;41.97;20.00;;;8.70;86.90;;;5.52;88.86;99508.31;4969409;28;20039;-89
2022/03/30 04:23:13;;;;;;;42.87;19.87;;;8.70;87.20;;;5.60;88.54;99501.03;4970629;28;20118;-88
2022/03/30 04:25:40;;;;;;;45.67;19.92;;;8.60;87.10;;;5.58;88.92;99491.41;4969392;28;20043;-88
2022/03/30 04:28:08;;;;;;;44.72;20.05;;;8.60;87.10;;;5.58;88.43;99491.41;4969570;28;20122;-88
2022/03/30 04:30:37;;;;;;;43.83;20.88;;;8.60;87.10;;;5.54;88.56;99495.47;4969819;28;20042;-88
2022/03/30 04:33:04;;;;;;;43.28;20.17;;;8.60;87.20;;;5.60;88.55;99489.41;4970275;28;20129;-89
2022/03/30 04:35:31;;;;;;;44.90;20.77;;;8.60;87.10;;;5.46;88.90;99488.28;4985237;28;20141;-88
2022/03/30 04:37:59;;;;;;;40.05;20.67;;;8.60;87.10;;;5.40;89.16;99483.59;4986404;23;20561;-90
2022/03/30 04:40:29;;;;;;;42.25;20.33;;;8.50;87.20;;;5.42;89.26;99477.00;4978330;28;20066;-91
2022/03/30 04:42:57;;;;;;;41.10;20.17;;;8.50;87.40;;;5.39;89.65;99471.97;4971167;28;20411;-91
2022/03/30 04:45:25;;;;;;;43.97;20.67;;;8.50;87.30;;;5.33;89.65;99467.28;4971931;28;20042;-91
2022/03/30 04:47:54;;;;;;;44.67;20.58;;;8.50;87.50;;;5.09;89.97;99465.53;4988986;28;20466;-90
2022/03/30 04:50:22;;;;;;;45.35;21.05;;;8.40;87.50;;;5.03;91.10;99466.25;4988362;28;20042;-92
2022/03/30 04:52:51;;;;;;;39.15;20.17;;;8.40;87.60;;;4.97;91.34;99470.47;4989342;28;20050;-90
2022/03/30 04:55:19;;;;;;;46.67;21.10;;;8.30;87.90;;;5.09;91.16;99477.16;4989089;28;20613;-91
2022/03/30 04:57:47;;;;;;;53.28;22.20;;;8.20;87.90;;;5.13;90.76;99479.50;4989351;28;20050;-91
2022/03/30 05:00:16;;;;;;;43.30;21.33;;;8.30;88.10;;;4.87;91.35;99467.13;4988234;28;20475;-90
2022/03/30 05:02:43;;;;;;;39.92;19.40;;;8.20;87.90;;;4.70;92.31;99472.59;4989409;28;20054;-91
2022/03/30 05:05:12;;;;;;;43.05;20.83;;;8.10;88.00;;;4.56;92.64;99477.84;4988789;28;20050;-92
2022/03/30 05:07:40;;;;;;;42.45;19.75;;;8.10;87.90;;;4.41;93.22;99473.13;4983372;28;20504;-91
2022/03/30 05:10:12;;;;;;;43.95;20.83;;;8.00;88.10;;;4.40;93.26;99470.59;4970236;28;20039;-91
2022/03/30 05:12:40;;;;;;;41.08;21.05;;;7.90;88.30;;;4.63;93.05;99478.84;4983856;28;20080;-90
2022/03/30 05:15:10;;;;;;;65.93;21.80;;;7.90;88.80;;;4.63;93.00;99476.13;4990384;28;20042;-90
2022/03/30 05:17:40;;;;;;;46.00;21.43;;;7.90;89.00;;;4.45;93.63;99474.47;4989343;28;20050;-91
2022/03/30 05:20:09;;;;;;;48.38;22.08;;;7.80;88.80;;;4.62;93.22;99480.66;4992694;28;20052;-90
2022/03/30 05:22:38;;;;;;;49.78;22.27;;;7.80;89.00;;;4.69;93.10;99478.13;4993559;28;20076;-92
2022/03/30 05:25:08;;;;;;;57.50;23.02;;;7.80;89.10;;;4.68;93.05;99473.75;4977684;28;20381;-90
2022/03/30 05:27:35;;;;;;;50.38;23.23;;;7.80;89.20;;;4.63;93.22;99478.84;4972937;28;20101;-91
2022/03/30 05:30:03;;;;;;;49.05;22.10;;;7.80;89.20;;;4.67;92.96;99475.63;4971290;28;20042;-91
2022/03/30 05:32:31;;;;;;;42.35;21.42;;;7.80;89.20;;;4.55;93.50;99474.31;4973394;28;20125;-92
2022/03/30 05:34:58;;;;;;;46.70;22.20;;;7.80;89.30;;;4.42;93.44;99479.38;4972124;28;20053;-91
2022/03/30 05:37:26;;;;;;;43.33;21.05;;;7.70;89.20;;;4.34;93.65;99484.75;4971875;28;20065;-91
2022/03/30 05:39:55;;;;;;;45.55;21.35;;;7.60;89.20;;;4.35;94.30;99478.38;4977509;28;20784;-92
2022/03/30 05:42:23;;;;;;;47.60;21.60;;;7.70;89.60;;;4.29;94.78;99475.34;4991882;28;20046;-90
2022/03/30 05:44:50;;;;;;;54.25;23.30;;;7.60;89.70;;;4.47;95.12;99480.56;4991972;28;20042;-90
2022/03/30 05:47:18;;;;;;;50.58;23.25;;;7.60;89.90;;;4.58;94.15;99473.09;4993398;28;20113;-91
2022/03/30 05:49:46;;;;;;;52.83;23.15;;;7.70;89.90;;;4.59;93.79;99486.41;4992474;28;20135;-90
2022/03/30 05:52:14;;;;;;;46.90;21.98;;;7.70;90.00;;;4.56;94.26;99492.13;4991583;28;20045;-91
2022/03/30 05:54:41;;;;;;;45.72;21.48;;;7.70;90.10;;;4.63;93.92;99481.53;4991801;28;20511;-91
2022/03/30 05:57:10;;;;;;;51.58;22.10;;;7.60;90.00;;;4.89;92.76;99483.97;4993085;28;20053;-92
2022/03/30 05:59:40;;;;;;;51.58;22.10;;;7.70;90.00;;;5.01;92.05;99484.47;4991978;28;20064;-90
2022/03/30 06:02:10;;;;;;;51.42;22.92;;;7.70;89.80;;;5.02;91.79;99484.25;4993000;28;20042;-91
2022/03/30 06:04:38;;;;;;;47.88;23.45;;;7.80;89.60;;;4.95;91.57;99486.00;4993042;28;20038;-92
2022/03/30 06:07:06;;;;;;;52.38;22.80;;;7.70;89.70;;;5.00;92.15;99488.97;4990959;28;20047;-88
2022/03/30 06:09:34;;;;;;;55.97;23.67;;;7.80;89.60;;;5.07;91.71;99497.22;4991997;28;20124;-87
2022/03/30 06:12:01;;;;;;;52.63;23.45;;;7.80;89.50;;;5.05;91.22;99497.41;4989971;28;20475;-85
2022/03/30 06:14:29;;;;;;;43.53;21.90;;;7.80;89.40;;;5.08;91.43;99496.19;4991545;28;20052;-84
2022/03/30 06:16:57;;;;;;;45.58;22.23;;;7.80;89.50;;;5.14;90.90;99489.28;4991734;28;20128;-89
2022/03/30 06:19:28;;;;;;;54.83;23.40;;;7.90;89.40;;;5.14;90.80;99489.28;4990456;28;20038;-86
2022/03/30 06:21:55;;;;;;;55.30;22.65;;;7.90;89.30;;;5.19;90.67;99482.34;4991009;28;20663;-86
2022/03/30 06:24:22;;;;;;;43.13;22.70;;;7.90;89.10;;;5.17;90.91;99484.38;4991681;28;20128;-88
2022/03/30 06:26:50;;;;;;;47.85;22.23;;;7.90;89.50;;;5.12;91.18;99478.66;4991444;28;20156;-87
2022/03/30 06:29:17;;;;;;;56.22;21.83;;;7.90;89.40;;;5.09;91.04;99485.25;4988648;28;20593;-88
2022/03/30 06:31:46;;;;;;;53.70;22.77;;;7.80;89.30;;;5.15;90.79;99496.34;4990853;28;20486;-89
2022/03/30 06:34:13;;;;;;;41.70;21.63;;;7.90;89.10;;;5.16;89.83;99492.63;4991789;28;20069;-88
2022/03/30 06:36:40;;;;;;;56.20;23.85;;;7.90;88.90;;;5.13;90.69;99498.41;4989991;28;20058;-85
2022/03/30 06:39:08;;;;;;;46.00;21.10;;;7.90;89.00;;;5.14;90.85;99489.28;4990442;28;20042;-87
2022/03/30 06:41:35;;;;;;;49.25;21.17;;;7.90;88.80;;;5.17;91.01;99494.31;4989299;28;20054;-87
2022/03/30 06:44:02;;;;;;;49.45;21.60;;;8.00;88.90;;;5.28;89.91;99494.78;4989723;28;20414;-87
2022/03/30 06:46:33;;;;;;;44.78;21.75;;;8.00;88.80;;;5.20;90.29;99504.78;4990408;28;20757;-86
2022/03/30 06:49:03;;;;;;;47.63;21.67;;;8.00;88.70;;;5.13;90.95;99509.19;4989452;28;20050;-87
2022/03/30 06:51:30;;;;;;;52.10;22.92;;;8.00;89.00;;;5.26;90.10;99512.16;4986656;28;20202;-86
2022/03/30 06:53:57;;;;;;;46.70;22.10;;;8.00;88.80;;;5.41;89.90;99502.31;4984965;28;20049;-89
2022/03/30 06:56:25;;;;;;;45.25;21.17;;;8.10;88.80;;;5.38;90.94;99502.66;5001281;28;20746;-88
2022/03/30 06:58:53;;;;;;;44.63;20.58;;;8.10;89.30;;;5.52;89.48;99511.00;5010056;28;20137;-90
2022/03/30 07:01:20;;;;;;;41.95;21.25;;;8.10;88.80;;;5.68;89.11;99506.38;5007564;28;20550;-86
2022/03/30 07:03:47;;;;;;;40.60;21.00;;;8.20;88.60;;;5.79;89.49;99504.31;4992840;28;20090;-88
2022/03/30 07:06:16;;;;;;;50.25;22.80;;;8.30;89.00;;;5.80;89.09;99504.09;4994709;28;20698;-90
2022/03/30 07:11:30;;;;;;;49.13;21.00;;;8.30;88.60;;;6.02;88.22;99493.53;4988207;28;20225;-88
2022/03/30 07:13:58;;;;;;;44.63;21.60;;;8.40;88.40;;;6.15;87.26;99499.19;4989253;28;20570;-88
2022/03/30 07:16:26;;;;;;;48.38;21.60;;;8.50;88.20;;;6.12;86.27;99504.94;4990617;28;20144;-88
2022/03/30 07:18:55;;;;;;;44.25;20.98;;;8.50;87.70;;;6.17;85.99;99494.44;4988341;28;20038;-88
2022/03/30 07:21:26;;;;;;;47.75;21.90;;;8.60;87.40;;;6.35;86.31;99506.78;4981053;28;20049;-88
2022/03/30 07:23:54;;;;;;;47.90;22.58;;;8.60;87.60;;;6.41;86.07;99497.94;4990382;28;20065;-87
2022/03/30 07:26:21;;;;;;;40.53;21.13;;;8.70;87.50;;;6.52;85.60;99488.53;4990603;28;20068;-88
2022/03/30 07:28:48;;;;;;;51.83;21.85;;;8.80;87.20;;;6.64;84.87;99493.34;4988709;28;20438;-87
2022/03/30 07:31:15;;;;;;;48.20;23.20;;;8.80;87.00;;;6.73;84.13;99490.53;4986867;28;20042;-87
2022/03/30 07:33:43;;;;;;;49.05;22.52;;;8.90;86.50;;;6.77;84.62;99491.84;4989814;28;20097;-88
2022/03/30 07:36:10;;;;;;;47.17;22.65;;;8.90;86.70;;;6.85;83.76;99489.03;4989729;28;20129;-88
2022/03/30 07:38:39;;;;;;;47.13;23.08;;;9.00;86.30;;;6.89;83.29;99486.81;4988745;28;20046;-88
2022/03/30 07:41:06;;;;;;;48.58;21.60;;;9.00;86.00;;;7.02;83.71;99474.28;4988076;28;20047;-87
2022/03/30 07:43:33;;;;;;;43.72;21.92;;;9.10;86.50;;;7.15;82.67;99478.22;4988792;28;20046;-88
2022/03/30 07:46:00;;;;;;;48.67;21.92;;;9.20;86.20;;;7.21;83.09;99472.06;4990085;28;20149;-87
2022/03/30 07:48:28;;;;;;;47.55;22.17;;;9.20;86.20;;;7.29;82.89;99469.25;4989964;28;20050;-87
2022/03/30 07:50:55;;;;;;;45.92;22.15;;;9.30;86.20;;;7.41;82.82;99462.31;4989420;28;20137;-87
2022/03/30 07:53:22;;;;;;;55.42;22.90;;;9.40;86.30;;;7.46;83.19;99464.44;4989569;28;20073;-87
2022/03/30 07:55:51;;;;;;;44.40;22.33;;;9.40;86.70;;;7.53;82.77;99467.25;4988439;28;20043;-87
2022/03/30 07:58:18;;;;;;;46.22;21.92;;;9.60;86.40;;;7.51;82.75;99461.19;4987976;28;20074;-87
2022/03/30 08:00:45;;;;;;;40.13;21.98;;;9.60;86.20;;;7.58;81.60;99457.50;4989174;28;20145;-88
2022/03/30 08:03:13;;;;;;;49.03;22.15;;;9.70;85.60;;;7.65;82.31;99462.97;5000511;28;20096;-87
2022/03/30 08:05:43;;;;;;;45.78;22.23;;;9.70;85.90;;;7.83;80.84;99455.28;4991294;28;20527;-88
2022/03/30 08:08:10;;;;;;;43.65;22.42;;;9.80;85.20;;;7.89;80.53;99450.94;4987943;28;20057;-87
2022/03/30 08:10:38;;;;;;;41.88;21.73;;;9.80;85.10;;;7.99;80.64;99456.88;4988954;28;20122;-88
2022/03/30 08:13:08;;;;;;;45.92;21.63;;;9.90;85.20;;;7.95;79.07;99454.75;4988137;28;20046;-87
2022/03/30 08:15:38;;;;;;;39.40;21.15;;;9.90;84.30;;;7.99;80.66;99461.47;4989513;28;20402;-87
2022/03/30 08:18:09;;;;;;;44.67;21.20;;;9.90;85.10;;;8.10;79.73;99460.94;4988245;28;20062;-87
2022/03/30 08:23:21;;;;;;;43.47;19.40;;;10.10;83.70;;;8.15;79.08;99453.06;4976386;28;20794;-87
2022/03/30 08:25:48;;;;;;;38.35;18.70;;;10.10;84.10;;;8.23;77.10;99460.22;4999455;28;20035;-87
2022/03/30 08:28:17;;;;;;;43.10;19.10;;;10.10;83.00;;;8.16;77.35;99465.56;5003609;28;20487;-87
2022/03/30 08:30:44;;;;;;;37.08;18.67;;;10.10;82.60;;;8.38;77.46;99457.44;5003953;28;20136;-87
2022/03/30 08:33:12;;;;;;;37.88;18.23;;;10.10;83.10;;;8.51;77.18;99465.69;5004233;28;20038;-86
2022/03/30 08:35:41;;;;;;;40.67;18.85;;;10.30;83.00;;;8.71;76.64;99467.72;4988903;28;20043;-87
2022/03/30 08:38:08;;;;;;;38.60;17.85;;;10.40;83.60;;;8.66;75.25;99464.75;4987644;28;20043;-87
2022/03/30 08:40:36;;;;;;;38.63;17.67;;;10.40;81.70;;;8.77;76.19;99461.47;4986534;28;20137;-88
2022/03/30 08:43:04;;;;;;;41.40;18.42;;;10.50;82.70;;;8.88;74.45;99468.25;4989582;28;20039;-87
2022/03/30 08:45:33;;;;;;;48.42;18.55;;;10.60;82.00;;;8.81;75.26;99457.34;4988973;28;20043;-87
2022/03/30 08:48:01;;;;;;;34.60;16.85;;;10.60;81.70;;;8.71;73.81;99457.69;4987677;28;20039;-87
2022/03/30 08:50:29;;;;;;;36.10;18.35;;;10.50;80.40;;;8.72;73.27;99458.53;4987481;28;20035;-87
2022/03/30 08:53:04;;;;;;;36.67;16.02;;;10.60;80.50;;;8.63;73.40;99465.16;4991150;28;20054;-87
2022/03/30 08:55:32;;;;;;;35.03;17.05;;;10.60;80.20;;;8.49;73.62;99451.50;4992005;28;20517;-87
2022/03/30 08:57:59;;;;;;;36.72;17.27;;;10.50;79.90;;;8.53;73.58;99455.50;4993189;28;20050;-87
2022/03/30 09:00:30;;;;;;;40.90;17.23;;;10.50;80.50;;;8.72;73.66;99459.38;4991079;28;20589;-87
2022/03/30 09:03:00;;;;;;;42.00;16.23;;;10.60;80.40;;;8.70;73.50;99456.03;4991744;28;20120;-87
2022/03/30 09:05:29;;;;;;;35.38;16.70;;;10.60;80.10;;;8.81;72.60;99454.63;4990524;28;20042;-86
2022/03/30 09:08:11;;;;;;;33.10;15.10;;;10.60;79.90;;;8.82;71.81;99456.31;4990925;28;20125;-87
2022/03/30 09:10:40;;;;;;;35.25;16.48;;;10.60;79.90;;;8.69;72.11;99451.63;4990279;28;20046;-87
2022/03/30 09:13:08;;;;;;;27.55;15.57;;;10.60;79.50;;;8.80;72.88;99450.25;4990857;28;20042;-87
2022/03/30 09:15:38;;;;;;;36.95;16.55;;;10.60;79.60;;;9.01;72.42;99446.59;4992770;28;20077;-87
2022/03/30 09:18:09;;;;;;;32.33;15.23;;;10.80;80.00;;;8.93;71.53;99444.03;4988756;28;20050;-88
2022/03/30 09:20:38;;;;;;;35.42;16.17;;;10.80;78.90;;;9.02;71.38;99447.44;4989817;28;20050;-91
2022/03/30 09:23:08;;;;;;;38.33;14.98;;;10.80;79.10;;;9.00;71.19;99445.78;4992371;28;20038;-88
2022/03/30 09:25:36;;;;;;;35.42;15.20;;;10.80;78.70;;;9.03;71.49;99444.53;4990318;28;20129;-88
2022/03/30 09:28:04;;;;;;;27.20;15.05;;;10.80;79.10;;;9.03;70.55;99444.53;4977335;28;20054;-87
2022/03/30 09:30:32;;;;;;;29.83;15.18;;;10.80;78.60;;;8.94;69.37;99446.56;4985083;28;20041;-87
2022/03/30 09:33:00;;;;;;;31.13;13.85;;;10.80;77.70;;;8.93;70.37;99438.63;4990876;28;20121;-87
2022/03/30 09:35:33;;;;;;;27.48;13.90;;;10.80;77.70;;;9.12;70.46;99445.19;4991018;28;20132;-87
2022/03/30 09:38:03;;;;;;;26.40;13.88;;;10.90;78.40;;;9.05;69.02;99434.31;4992343;28;20665;-88
2022/03/30 09:40:44;;;;;;;32.27;14.83;;;10.90;77.20;;;9.08;70.07;99424.91;4991553;28;20046;-87
2022/03/30 09:43:23;;;;;;;30.38;14.02;;;10.90;77.90;;;9.17;70.44;99418.28;4992077;28;20054;-87
2022/03/30 09:46:04;;;;;;;27.17;13.63;;;11.00;78.10;;;9.22;69.21;99426.66;4991261;28;20050;-87
2022/03/30 09:48:37;;;;;;;33.08;15.10;;;11.00;77.80;;;9.14;68.60;99424.13;4992315;28;20046;-87
2022/03/30 09:51:06;;;;;;;29.60;14.25;;;11.00;77.00;;;9.04;68.24;99412.78;4989863;28;20049;-88
2022/03/30 09:53:36;;;;;;;26.10;12.55;;;11.00;76.40;;;9.11;68.98;99410.94;4990853;28;20089;-88
2022/03/30 09:56:07;;;;;;;30.20;13.38;;;11.00;77.10;;;9.22;69.31;99418.50;4991740;28;20133;-88
2022/03/30 09:58:36;;;;;;;29.80;13.30;;;11.00;77.10;;;9.12;67.58;99409.91;4991354;28;20096;-88
2022/03/30 10:01:19;;;;;;;29.20;13.98;;;11.00;76.10;;;9.07;68.57;99415.94;4989902;28;20100;-87
2022/03/30 10:03:52;;;;;;;25.25;13.18;;;11.00;76.20;;;9.15;67.67;99417.66;4989900;28;20070;-87
2022/03/30 10:06:24;;;;;;;22.77;12.30;;;11.00;76.10;;;9.20;67.82;99416.00;4991581;28;20085;-88
2022/03/30 10:08:52;;;;;;;23.90;13.13;;;11.00;76.00;;;9.22;68.01;99415.81;4991956;28;20060;-88
2022/03/30 10:11:21;;;;;;;26.17;11.82;;;11.00;76.10;;;9.26;67.69;99408.91;4989702;28;20042;-87
2022/03/30 10:13:51;;;;;;;23.98;11.90;;;11.10;76.40;;;9.36;67.96;99411.25;4990681;28;20181;-88
2022/03/30 10:16:20;;;;;;;24.95;12.20;;;11.10;76.50;;;9.39;66.85;99405.41;4990350;28;20052;-88
2022/03/30 10:18:49;;;;;;;24.20;12.52;;;11.10;75.70;;;9.42;67.74;99393.31;4990417;28;20047;-87
2022/03/30 10:21:26;;;;;;;24.48;11.43;;;11.10;76.10;;;9.49;67.03;99395.00;4990949;28;20053;-87
2022/03/30 10:24:31;;;;;;;22.02;12.02;;;11.20;76.10;;;9.49;67.48;99394.16;4991717;28;20487;-88
2022/03/30 10:27:10;;;;;;;25.25;11.45;;;11.30;75.90;;;9.54;66.77;99391.69;4968693;28;20570;-88
2022/03/30 10:29:39;;;;;;;22.60;12.63;;;11.30;75.50;;;9.53;66.74;99387.28;4970812;28;20138;-89